sensor_id;sensor_type;location;lat;lon;timestamp;temperature;humidity
39983;DHT22;25670;44.782;10.356;2023-04-03T00:01:47;8.60;99.90
39983;DHT22;25670;44.782;10.356;2023-04-03T00:04:13;8.40;99.90
39983;DHT22;25670;44.782;10.356;2023-04-03T00:06:39;9.70;99.90
39983;DHT22;25670;44.782;10.356;2023-04-03T00:09:06;8.50;99.90
39983;DHT22;25670;44.782;10.356;2023-04-03T00:11:32;8.30;99.90
39983;DHT22;25670;44.782;10.356;2023-04-03T00:13:58;8.50;99.90
39983;DHT22;25670;44.782;10.356;2023-04-03T00:16:24;8.50;99.90
39983;DHT22;25670;44.782;10.356;2023-04-03T00:18:51;8.40;99.90
39983;DHT22;25670;44.782;10.356;2023-04-03T00:21:17;8.50;99.90
39983;DHT22;25670;44.782;10.356;2023-04-03T00:23:43;8.40;99.90
39983;DHT22;25670;44.782;10.356;2023-04-03T00:26:09;8.40;99.90
39983;DHT22;25670;44.782;10.356;2023-04-03T00:28:37;8.50;99.90
39983;DHT22;25670;44.782;10.356;2023-04-03T00:33:30;8.50;99.90
39983;DHT22;25670;44.782;10.356;2023-04-03T00:35:56;9.10;99.90
39983;DHT22;25670;44.782;10.356;2023-04-03T00:38:23;8.70;99.90
39983;DHT22;25670;44.782;10.356;2023-04-03T00:40:50;8.90;99.90
39983;DHT22;25670;44.782;10.356;2023-04-03T00:43:22;9.00;99.90
39983;DHT22;25670;44.782;10.356;2023-04-03T00:45:51;9.10;99.90
39983;DHT22;25670;44.782;10.356;2023-04-03T00:48:36;9.10;99.90
39983;DHT22;25670;44.782;10.356;2023-04-03T00:51:06;9.30;99.90
39983;DHT22;25670;44.782;10.356;2023-04-03T00:53:37;9.20;99.90
39983;DHT22;25670;44.782;10.356;2023-04-03T00:56:11;9.60;99.90
39983;DHT22;25670;44.782;10.356;2023-04-03T00:58:45;9.20;99.90
39983;DHT22;25670;44.782;10.356;2023-04-03T01:01:18;9.10;99.90
39983;DHT22;25670;44.782;10.356;2023-04-03T01:03:46;9.10;99.90
39983;DHT22;25670;44.782;10.356;2023-04-03T01:06:14;9.10;99.90
39983;DHT22;25670;44.782;10.356;2023-04-03T01:08:42;9.20;99.90
39983;DHT22;25670;44.782;10.356;2023-04-03T01:11:09;9.30;99.90
39983;DHT22;25670;44.782;10.356;2023-04-03T01:13:36;9.10;99.90
39983;DHT22;25670;44.782;10.356;2023-04-03T01:16:05;9.10;99.90
39983;DHT22;25670;44.782;10.356;2023-04-03T01:18:33;9.00;99.90
39983;DHT22;25670;44.782;10.356;2023-04-03T01:24:25;9.00;99.90
39983;DHT22;25670;44.782;10.356;2023-04-03T01:26:54;9.00;99.90
39983;DHT22;25670;44.782;10.356;2023-04-03T01:29:20;9.00;99.90
39983;DHT22;25670;44.782;10.356;2023-04-03T01:31:52;8.90;99.90
39983;DHT22;25670;44.782;10.356;2023-04-03T01:34:20;9.00;99.90
39983;DHT22;25670;44.782;10.356;2023-04-03T01:36:46;9.70;99.90
39983;DHT22;25670;44.782;10.356;2023-04-03T01:39:13;8.90;99.90
39983;DHT22;25670;44.782;10.356;2023-04-03T01:41:39;8.90;99.90
39983;DHT22;25670;44.782;10.356;2023-04-03T01:44:38;9.60;99.90
39983;DHT22;25670;44.782;10.356;2023-04-03T01:47:07;8.70;99.90
39983;DHT22;25670;44.782;10.356;2023-04-03T01:49:34;8.90;99.90
39983;DHT22;25670;44.782;10.356;2023-04-03T01:52:01;9.00;99.90
39983;DHT22;25670;44.782;10.356;2023-04-03T01:54:27;8.90;99.90
39983;DHT22;25670;44.782;10.356;2023-04-03T01:56:53;8.90;99.90
39983;DHT22;25670;44.782;10.356;2023-04-03T01:59:20;8.90;99.90
39983;DHT22;25670;44.782;10.356;2023-04-03T02:01:47;8.80;99.90
39983;DHT22;25670;44.782;10.356;2023-04-03T02:04:13;8.80;99.90
39983;DHT22;25670;44.782;10.356;2023-04-03T02:06:40;9.30;99.90
39983;DHT22;25670;44.782;10.356;2023-04-03T02:09:07;8.70;99.90
39983;DHT22;25670;44.782;10.356;2023-04-03T02:11:33;8.80;99.90
39983;DHT22;25670;44.782;10.356;2023-04-03T02:13:59;8.70;99.90
39983;DHT22;25670;44.782;10.356;2023-04-03T02:16:25;8.80;99.90
39983;DHT22;25670;44.782;10.356;2023-04-03T02:18:52;8.90;99.90
39983;DHT22;25670;44.782;10.356;2023-04-03T02:21:18;8.80;99.90
39983;DHT22;25670;44.782;10.356;2023-04-03T02:23:44;8.90;99.90
39983;DHT22;25670;44.782;10.356;2023-04-03T02:26:13;9.00;99.90
39983;DHT22;25670;44.782;10.356;2023-04-03T02:28:40;8.80;99.90
39983;DHT22;25670;44.782;10.356;2023-04-03T02:31:07;8.80;99.90
39983;DHT22;25670;44.782;10.356;2023-04-03T02:33:35;8.80;99.90
39983;DHT22;25670;44.782;10.356;2023-04-03T02:36:06;8.80;99.90
39983;DHT22;25670;44.782;10.356;2023-04-03T02:38:33;8.70;99.90
39983;DHT22;25670;44.782;10.356;2023-04-03T02:41:11;8.70;99.90
39983;DHT22;25670;44.782;10.356;2023-04-03T02:46:06;8.40;99.90
39983;DHT22;25670;44.782;10.356;2023-04-03T02:48:32;8.90;99.90
39983;DHT22;25670;44.782;10.356;2023-04-03T02:50:59;8.50;99.90
39983;DHT22;25670;44.782;10.356;2023-04-03T02:53:26;8.40;99.90
39983;DHT22;25670;44.782;10.356;2023-04-03T02:55:53;8.30;99.90
39983;DHT22;25670;44.782;10.356;2023-04-03T02:58:19;7.80;99.90
39983;DHT22;25670;44.782;10.356;2023-04-03T03:00:45;8.20;99.90
39983;DHT22;25670;44.782;10.356;2023-04-03T03:03:11;8.20;99.90
39983;DHT22;25670;44.782;10.356;2023-04-03T03:05:40;8.40;99.90
39983;DHT22;25670;44.782;10.356;2023-04-03T03:08:06;8.10;99.90
39983;DHT22;25670;44.782;10.356;2023-04-03T03:10:32;8.10;99.90
39983;DHT22;25670;44.782;10.356;2023-04-03T03:12:58;7.90;99.90
39983;DHT22;25670;44.782;10.356;2023-04-03T03:15:24;8.10;99.90
39983;DHT22;25670;44.782;10.356;2023-04-03T03:17:51;7.70;99.90
39983;DHT22;25670;44.782;10.356;2023-04-03T03:20:17;7.80;99.90
39983;DHT22;25670;44.782;10.356;2023-04-03T03:22:44;7.90;99.90
39983;DHT22;25670;44.782;10.356;2023-04-03T03:25:10;7.90;99.90
39983;DHT22;25670;44.782;10.356;2023-04-03T03:27:37;7.70;99.90
39983;DHT22;25670;44.782;10.356;2023-04-03T03:30:04;7.70;99.90
39983;DHT22;25670;44.782;10.356;2023-04-03T03:32:32;7.80;99.90
39983;DHT22;25670;44.782;10.356;2023-04-03T03:34:58;7.60;99.90
39983;DHT22;25670;44.782;10.356;2023-04-03T03:37:24;7.60;99.90
39983;DHT22;25670;44.782;10.356;2023-04-03T03:39:50;7.40;99.90
39983;DHT22;25670;44.782;10.356;2023-04-03T03:42:17;7.40;99.90
39983;DHT22;25670;44.782;10.356;2023-04-03T03:44:43;7.40;99.90
39983;DHT22;25670;44.782;10.356;2023-04-03T03:47:09;7.40;99.90
39983;DHT22;25670;44.782;10.356;2023-04-03T03:49:37;7.30;99.90
39983;DHT22;25670;44.782;10.356;2023-04-03T03:52:03;7.10;99.90
39983;DHT22;25670;44.782;10.356;2023-04-03T03:54:30;7.30;99.90
39983;DHT22;25670;44.782;10.356;2023-04-03T03:56:56;7.10;99.90
39983;DHT22;25670;44.782;10.356;2023-04-03T03:59:24;7.30;99.90
39983;DHT22;25670;44.782;10.356;2023-04-03T04:01:51;7.30;99.90
39983;DHT22;25670;44.782;10.356;2023-04-03T04:04:17;7.50;99.90
39983;DHT22;25670;44.782;10.356;2023-04-03T04:06:44;7.60;99.90
39983;DHT22;25670;44.782;10.356;2023-04-03T04:09:11;7.40;99.90
39983;DHT22;25670;44.782;10.356;2023-04-03T04:14:06;6.90;99.90
39983;DHT22;25670;44.782;10.356;2023-04-03T04:16:34;6.80;99.90
39983;DHT22;25670;44.782;10.356;2023-04-03T04:19:05;7.00;99.90
39983;DHT22;25670;44.782;10.356;2023-04-03T04:21:32;7.10;99.90
39983;DHT22;25670;44.782;10.356;2023-04-03T04:26:25;6.90;99.90
39983;DHT22;25670;44.782;10.356;2023-04-03T04:28:52;6.90;99.90
39983;DHT22;25670;44.782;10.356;2023-04-03T04:31:19;6.80;99.90
39983;DHT22;25670;44.782;10.356;2023-04-03T04:38:44;9.40;99.90
39983;DHT22;25670;44.782;10.356;2023-04-03T04:41:10;6.80;99.90
39983;DHT22;25670;44.782;10.356;2023-04-03T04:43:37;6.40;99.90
39983;DHT22;25670;44.782;10.356;2023-04-03T04:46:06;7.00;99.90
39983;DHT22;25670;44.782;10.356;2023-04-03T04:48:37;6.80;99.90
39983;DHT22;25670;44.782;10.356;2023-04-03T04:51:04;6.80;99.90
39983;DHT22;25670;44.782;10.356;2023-04-03T04:53:31;6.40;99.90
39983;DHT22;25670;44.782;10.356;2023-04-03T04:55:58;6.60;99.90
39983;DHT22;25670;44.782;10.356;2023-04-03T05:01:02;6.50;99.90
39983;DHT22;25670;44.782;10.356;2023-04-03T05:03:30;6.40;99.90
39983;DHT22;25670;44.782;10.356;2023-04-03T05:05:56;6.50;99.90
39983;DHT22;25670;44.782;10.356;2023-04-03T05:10:49;6.40;99.90
39983;DHT22;25670;44.782;10.356;2023-04-03T05:13:17;6.60;99.90
39983;DHT22;25670;44.782;10.356;2023-04-03T05:15:44;6.50;99.90
39983;DHT22;25670;44.782;10.356;2023-04-03T05:18:10;6.40;99.90
39983;DHT22;25670;44.782;10.356;2023-04-03T05:20:36;6.50;99.90
39983;DHT22;25670;44.782;10.356;2023-04-03T05:23:03;6.40;99.90
39983;DHT22;25670;44.782;10.356;2023-04-03T05:30:23;6.50;99.90
39983;DHT22;25670;44.782;10.356;2023-04-03T05:35:27;6.50;99.90
39983;DHT22;25670;44.782;10.356;2023-04-03T05:37:57;6.60;99.90
39983;DHT22;25670;44.782;10.356;2023-04-03T05:40:23;6.60;99.90
39983;DHT22;25670;44.782;10.356;2023-04-03T05:42:53;6.60;99.90
39983;DHT22;25670;44.782;10.356;2023-04-03T05:45:22;6.70;99.90
39983;DHT22;25670;44.782;10.356;2023-04-03T05:47:48;6.60;99.90
39983;DHT22;25670;44.782;10.356;2023-04-03T05:52:44;6.60;99.90
39983;DHT22;25670;44.782;10.356;2023-04-03T05:55:12;7.00;99.90
39983;DHT22;25670;44.782;10.356;2023-04-03T05:57:39;7.00;99.90
39983;DHT22;25670;44.782;10.356;2023-04-03T06:00:07;7.00;99.90
39983;DHT22;25670;44.782;10.356;2023-04-03T06:02:40;7.10;99.90
39983;DHT22;25670;44.782;10.356;2023-04-03T06:05:10;7.30;99.90
39983;DHT22;25670;44.782;10.356;2023-04-03T06:07:38;7.30;99.90
39983;DHT22;25670;44.782;10.356;2023-04-03T06:10:04;7.30;99.90
39983;DHT22;25670;44.782;10.356;2023-04-03T06:14:57;7.50;99.90
39983;DHT22;25670;44.782;10.356;2023-04-03T06:17:24;7.60;99.90
39983;DHT22;25670;44.782;10.356;2023-04-03T06:19:51;7.70;99.90
39983;DHT22;25670;44.782;10.356;2023-04-03T06:22:17;7.70;99.90
39983;DHT22;25670;44.782;10.356;2023-04-03T06:24:45;8.20;99.90
39983;DHT22;25670;44.782;10.356;2023-04-03T06:27:12;7.90;99.90
39983;DHT22;25670;44.782;10.356;2023-04-03T06:29:38;8.10;99.90
39983;DHT22;25670;44.782;10.356;2023-04-03T06:32:05;8.20;99.90
39983;DHT22;25670;44.782;10.356;2023-04-03T06:54:14;9.60;99.90
39983;DHT22;25670;44.782;10.356;2023-04-03T07:08:54;10.30;99.90
39983;DHT22;25670;44.782;10.356;2023-04-03T07:16:14;10.60;99.90
39983;DHT22;25670;44.782;10.356;2023-04-03T07:31:02;10.60;99.90
39983;DHT22;25670;44.782;10.356;2023-04-03T07:33:29;11.00;99.90
39983;DHT22;25670;44.782;10.356;2023-04-03T07:40:50;11.30;99.90
39983;DHT22;25670;44.782;10.356;2023-04-03T07:43:17;11.50;99.90
39983;DHT22;25670;44.782;10.356;2023-04-03T07:48:11;11.60;99.90
39983;DHT22;25670;44.782;10.356;2023-04-03T07:50:40;11.60;99.90
39983;DHT22;25670;44.782;10.356;2023-04-03T07:55:34;11.90;99.90
39983;DHT22;25670;44.782;10.356;2023-04-03T07:58:00;11.90;99.90
39983;DHT22;25670;44.782;10.356;2023-04-03T08:02:53;11.90;99.90
39983;DHT22;25670;44.782;10.356;2023-04-03T08:15:06;12.00;99.90
39983;DHT22;25670;44.782;10.356;2023-04-03T08:17:34;12.10;99.90
39983;DHT22;25670;44.782;10.356;2023-04-03T08:20:02;12.20;99.90
39983;DHT22;25670;44.782;10.356;2023-04-03T08:42:07;12.70;99.90
39983;DHT22;25670;44.782;10.356;2023-04-03T08:45:10;12.80;99.90
39983;DHT22;25670;44.782;10.356;2023-04-03T08:47:52;12.90;99.90
39983;DHT22;25670;44.782;10.356;2023-04-03T08:50:45;13.10;99.90
39983;DHT22;25670;44.782;10.356;2023-04-03T08:53:19;13.20;99.90
39983;DHT22;25670;44.782;10.356;2023-04-03T08:55:49;13.30;99.90
39983;DHT22;25670;44.782;10.356;2023-04-03T08:58:19;13.40;99.90
39983;DHT22;25670;44.782;10.356;2023-04-03T09:01:02;12.40;99.90
39983;DHT22;25670;44.782;10.356;2023-04-03T09:03:32;13.30;99.90
39983;DHT22;25670;44.782;10.356;2023-04-03T09:06:06;13.60;99.90
39983;DHT22;25670;44.782;10.356;2023-04-03T09:08:38;13.70;99.90
39983;DHT22;25670;44.782;10.356;2023-04-03T09:14:30;13.90;99.90
39983;DHT22;25670;44.782;10.356;2023-04-03T09:20:21;14.10;99.90
39983;DHT22;25670;44.782;10.356;2023-04-03T09:22:50;14.10;99.90
39983;DHT22;25670;44.782;10.356;2023-04-03T09:25:33;14.30;99.90
39983;DHT22;25670;44.782;10.356;2023-04-03T09:32:56;14.70;99.90
39983;DHT22;25670;44.782;10.356;2023-04-03T09:35:34;15.10;99.90
39983;DHT22;25670;44.782;10.356;2023-04-03T09:38:18;15.00;99.90
39983;DHT22;25670;44.782;10.356;2023-04-03T09:40:50;15.20;99.90
39983;DHT22;25670;44.782;10.356;2023-04-03T09:45:45;15.50;99.90
39983;DHT22;25670;44.782;10.356;2023-04-03T09:48:19;15.90;99.90
39983;DHT22;25670;44.782;10.356;2023-04-03T09:53:39;17.10;99.90
39983;DHT22;25670;44.782;10.356;2023-04-03T09:59:13;17.10;99.90
39983;DHT22;25670;44.782;10.356;2023-04-03T10:01:37;17.00;99.90
39983;DHT22;25670;44.782;10.356;2023-04-03T10:04:11;17.20;99.90
39983;DHT22;25670;44.782;10.356;2023-04-03T10:06:40;17.40;99.90
39983;DHT22;25670;44.782;10.356;2023-04-03T10:09:24;17.40;99.90
39983;DHT22;25670;44.782;10.356;2023-04-03T10:14:39;17.60;99.90
39983;DHT22;25670;44.782;10.356;2023-04-03T10:24:52;17.90;99.90
39983;DHT22;25670;44.782;10.356;2023-04-03T10:27:26;17.60;99.90
39983;DHT22;25670;44.782;10.356;2023-04-03T10:30:21;17.60;99.90
39983;DHT22;25670;44.782;10.356;2023-04-03T10:38:31;17.70;99.90
39983;DHT22;25670;44.782;10.356;2023-04-03T10:41:28;18.00;99.90
39983;DHT22;25670;44.782;10.356;2023-04-03T10:46:28;17.90;99.90
39983;DHT22;25670;44.782;10.356;2023-04-03T10:52:13;18.50;99.90
39983;DHT22;25670;44.782;10.356;2023-04-03T10:57:30;19.20;99.90
39983;DHT22;25670;44.782;10.356;2023-04-03T11:02:32;18.90;99.90
39983;DHT22;25670;44.782;10.356;2023-04-03T11:05:44;19.10;99.90
39983;DHT22;25670;44.782;10.356;2023-04-03T11:08:38;18.50;99.90
39983;DHT22;25670;44.782;10.356;2023-04-03T11:11:20;17.40;99.90
39983;DHT22;25670;44.782;10.356;2023-04-03T11:14:02;16.70;99.90
39983;DHT22;25670;44.782;10.356;2023-04-03T11:16:34;16.40;99.90
39983;DHT22;25670;44.782;10.356;2023-04-03T11:19:17;16.00;99.90
39983;DHT22;25670;44.782;10.356;2023-04-03T11:21:54;16.10;99.90
39983;DHT22;25670;44.782;10.356;2023-04-03T11:24:27;16.30;99.90
39983;DHT22;25670;44.782;10.356;2023-04-03T11:26:56;16.70;99.90
39983;DHT22;25670;44.782;10.356;2023-04-03T11:29:34;17.30;99.90
39983;DHT22;25670;44.782;10.356;2023-04-03T11:34:35;18.10;99.90
39983;DHT22;25670;44.782;10.356;2023-04-03T11:37:37;18.50;99.90
39983;DHT22;25670;44.782;10.356;2023-04-03T11:48:04;18.70;99.90
39983;DHT22;25670;44.782;10.356;2023-04-03T11:53:02;18.00;99.90
39983;DHT22;25670;44.782;10.356;2023-04-03T12:13:41;18.90;99.90
39983;DHT22;25670;44.782;10.356;2023-04-03T12:27:04;20.20;99.90
39983;DHT22;25670;44.782;10.356;2023-04-03T12:45:44;20.70;96.00
39983;DHT22;25670;44.782;10.356;2023-04-03T12:48:15;20.50;96.80
39983;DHT22;25670;44.782;10.356;2023-04-03T12:50:45;21.20;95.90
39983;DHT22;25670;44.782;10.356;2023-04-03T12:53:25;21.20;94.70
39983;DHT22;25670;44.782;10.356;2023-04-03T12:55:56;22.40;93.80
39983;DHT22;25670;44.782;10.356;2023-04-03T12:58:27;22.70;93.00
39983;DHT22;25670;44.782;10.356;2023-04-03T13:01:09;24.00;92.40
39983;DHT22;25670;44.782;10.356;2023-04-03T13:03:39;24.50;91.30
39983;DHT22;25670;44.782;10.356;2023-04-03T13:06:06;24.60;90.90
39983;DHT22;25670;44.782;10.356;2023-04-03T13:08:32;24.00;88.90
39983;DHT22;25670;44.782;10.356;2023-04-03T13:11:06;24.70;88.20
39983;DHT22;25670;44.782;10.356;2023-04-03T13:13:34;24.60;88.50
39983;DHT22;25670;44.782;10.356;2023-04-03T13:16:08;24.70;88.40
39983;DHT22;25670;44.782;10.356;2023-04-03T13:18:37;25.00;91.00
39983;DHT22;25670;44.782;10.356;2023-04-03T13:21:15;24.70;90.30
39983;DHT22;25670;44.782;10.356;2023-04-03T13:23:46;24.30;91.00
39983;DHT22;25670;44.782;10.356;2023-04-03T13:26:16;25.50;90.30
39983;DHT22;25670;44.782;10.356;2023-04-03T13:28:44;25.70;87.40
39983;DHT22;25670;44.782;10.356;2023-04-03T13:34:10;27.30;86.10
39983;DHT22;25670;44.782;10.356;2023-04-03T13:36:40;25.30;90.20
39983;DHT22;25670;44.782;10.356;2023-04-03T13:41:43;21.90;94.30
39983;DHT22;25670;44.782;10.356;2023-04-03T13:46:58;22.00;93.80
39983;DHT22;25670;44.782;10.356;2023-04-03T13:49:36;22.30;93.90
39983;DHT22;25670;44.782;10.356;2023-04-03T13:52:25;23.80;92.30
39983;DHT22;25670;44.782;10.356;2023-04-03T13:54:55;22.90;90.50
39983;DHT22;25670;44.782;10.356;2023-04-03T14:02:23;21.70;92.50
39983;DHT22;25670;44.782;10.356;2023-04-03T14:04:57;22.90;92.10
39983;DHT22;25670;44.782;10.356;2023-04-03T14:07:26;23.20;90.30
39983;DHT22;25670;44.782;10.356;2023-04-03T14:09:53;21.90;91.30
39983;DHT22;25670;44.782;10.356;2023-04-03T14:14:46;22.60;93.40
39983;DHT22;25670;44.782;10.356;2023-04-03T14:17:20;24.50;91.50
39983;DHT22;25670;44.782;10.356;2023-04-03T14:19:49;24.30;90.40
39983;DHT22;25670;44.782;10.356;2023-04-03T14:22:26;25.90;87.20
39983;DHT22;25670;44.782;10.356;2023-04-03T14:24:52;25.80;85.00
39983;DHT22;25670;44.782;10.356;2023-04-03T14:27:26;23.60;88.10
39983;DHT22;25670;44.782;10.356;2023-04-03T14:29:54;22.00;90.00
39983;DHT22;25670;44.782;10.356;2023-04-03T14:32:21;21.70;91.20
39983;DHT22;25670;44.782;10.356;2023-04-03T14:34:50;21.00;93.40
39983;DHT22;25670;44.782;10.356;2023-04-03T14:37:21;20.30;92.50
39983;DHT22;25670;44.782;10.356;2023-04-03T14:39:49;20.30;92.80
39983;DHT22;25670;44.782;10.356;2023-04-03T14:42:20;20.60;93.00
39983;DHT22;25670;44.782;10.356;2023-04-03T14:44:47;22.30;91.70
39983;DHT22;25670;44.782;10.356;2023-04-03T14:47:17;22.50;92.40
39983;DHT22;25670;44.782;10.356;2023-04-03T14:52:27;23.60;89.10
39983;DHT22;25670;44.782;10.356;2023-04-03T14:54:53;23.80;88.60
39983;DHT22;25670;44.782;10.356;2023-04-03T14:57:23;24.10;85.90
39983;DHT22;25670;44.782;10.356;2023-04-03T14:59:50;23.40;81.90
39983;DHT22;25670;44.782;10.356;2023-04-03T15:02:36;23.40;80.80
39983;DHT22;25670;44.782;10.356;2023-04-03T15:05:08;23.80;78.10
39983;DHT22;25670;44.782;10.356;2023-04-03T15:07:44;24.40;79.40
39983;DHT22;25670;44.782;10.356;2023-04-03T15:10:19;23.90;75.70
39983;DHT22;25670;44.782;10.356;2023-04-03T15:12:47;24.50;76.20
39983;DHT22;25670;44.782;10.356;2023-04-03T15:15:15;26.50;75.00
39983;DHT22;25670;44.782;10.356;2023-04-03T15:17:43;26.20;72.70
39983;DHT22;25670;44.782;10.356;2023-04-03T15:20:18;25.90;69.70
39983;DHT22;25670;44.782;10.356;2023-04-03T15:25:12;25.80;64.70
39983;DHT22;25670;44.782;10.356;2023-04-03T15:27:39;26.20;66.80
39983;DHT22;25670;44.782;10.356;2023-04-03T15:30:10;26.70;64.70
39983;DHT22;25670;44.782;10.356;2023-04-03T15:35:04;27.00;64.80
39983;DHT22;25670;44.782;10.356;2023-04-03T15:37:30;27.20;61.80
39983;DHT22;25670;44.782;10.356;2023-04-03T15:39:56;27.70;61.20
39983;DHT22;25670;44.782;10.356;2023-04-03T15:42:23;26.90;61.60
39983;DHT22;25670;44.782;10.356;2023-04-03T15:47:15;26.30;61.50
39983;DHT22;25670;44.782;10.356;2023-04-03T15:49:42;26.30;60.20
39983;DHT22;25670;44.782;10.356;2023-04-03T15:52:08;26.30;58.50
39983;DHT22;25670;44.782;10.356;2023-04-03T15:54:34;25.60;57.60
39983;DHT22;25670;44.782;10.356;2023-04-03T15:57:01;26.10;60.20
39983;DHT22;25670;44.782;10.356;2023-04-03T15:59:27;26.30;60.70
39983;DHT22;25670;44.782;10.356;2023-04-03T16:01:55;25.60;60.30
39983;DHT22;25670;44.782;10.356;2023-04-03T16:04:22;25.60;59.60
39983;DHT22;25670;44.782;10.356;2023-04-03T16:06:49;26.30;57.70
39983;DHT22;25670;44.782;10.356;2023-04-03T16:09:16;26.20;58.40
39983;DHT22;25670;44.782;10.356;2023-04-03T16:11:42;26.90;59.60
39983;DHT22;25670;44.782;10.356;2023-04-03T16:14:10;26.60;58.00
39983;DHT22;25670;44.782;10.356;2023-04-03T16:16:36;26.10;57.70
39983;DHT22;25670;44.782;10.356;2023-04-03T16:19:03;25.50;57.10
39983;DHT22;25670;44.782;10.356;2023-04-03T16:21:31;25.80;61.40
39983;DHT22;25670;44.782;10.356;2023-04-03T16:23:58;25.20;56.90
39983;DHT22;25670;44.782;10.356;2023-04-03T16:26:27;25.10;61.40
39983;DHT22;25670;44.782;10.356;2023-04-03T16:28:54;25.00;57.10
39983;DHT22;25670;44.782;10.356;2023-04-03T16:31:22;24.40;58.70
39983;DHT22;25670;44.782;10.356;2023-04-03T16:33:49;24.20;61.20
39983;DHT22;25670;44.782;10.356;2023-04-03T16:38:42;24.10;60.30
39983;DHT22;25670;44.782;10.356;2023-04-03T16:41:08;24.30;60.00
39983;DHT22;25670;44.782;10.356;2023-04-03T16:43:34;23.80;61.70
39983;DHT22;25670;44.782;10.356;2023-04-03T16:46:01;24.70;61.20
39983;DHT22;25670;44.782;10.356;2023-04-03T16:48:29;24.40;62.50
39983;DHT22;25670;44.782;10.356;2023-04-03T16:50:55;23.10;62.70
39983;DHT22;25670;44.782;10.356;2023-04-03T16:53:23;23.10;60.80
39983;DHT22;25670;44.782;10.356;2023-04-03T17:15:24;20.50;65.60
39983;DHT22;25670;44.782;10.356;2023-04-03T17:17:51;20.40;63.60
39983;DHT22;25670;44.782;10.356;2023-04-03T17:20:18;16.60;61.70
39983;DHT22;25670;44.782;10.356;2023-04-03T17:30:07;17.20;66.30
39983;DHT22;25670;44.782;10.356;2023-04-03T17:37:29;15.00;70.60
39983;DHT22;25670;44.782;10.356;2023-04-03T17:42:21;15.00;76.30
39983;DHT22;25670;44.782;10.356;2023-04-03T17:52:07;13.00;82.00
39983;DHT22;25670;44.782;10.356;2023-04-03T17:57:01;13.10;86.00
39983;DHT22;25670;44.782;10.356;2023-04-03T18:01:59;12.10;86.60
39983;DHT22;25670;44.782;10.356;2023-04-03T18:09:26;11.70;90.70
39983;DHT22;25670;44.782;10.356;2023-04-03T18:11:54;11.60;92.30
39983;DHT22;25670;44.782;10.356;2023-04-03T18:14:23;11.50;92.50
39983;DHT22;25670;44.782;10.356;2023-04-03T18:19:17;11.00;94.20
39983;DHT22;25670;44.782;10.356;2023-04-03T18:24:15;11.10;95.90
39983;DHT22;25670;44.782;10.356;2023-04-03T18:26:44;11.00;96.90
39983;DHT22;25670;44.782;10.356;2023-04-03T18:29:13;10.80;99.00
39983;DHT22;25670;44.782;10.356;2023-04-03T18:31:41;10.70;99.20
39983;DHT22;25670;44.782;10.356;2023-04-03T18:39:03;10.30;99.90
39983;DHT22;25670;44.782;10.356;2023-04-03T18:41:38;10.00;99.90
39983;DHT22;25670;44.782;10.356;2023-04-03T18:44:08;10.00;99.90
39983;DHT22;25670;44.782;10.356;2023-04-03T18:46:36;10.30;99.90
39983;DHT22;25670;44.782;10.356;2023-04-03T18:51:29;9.70;99.90
39983;DHT22;25670;44.782;10.356;2023-04-03T18:53:55;10.10;99.90
39983;DHT22;25670;44.782;10.356;2023-04-03T18:56:21;10.10;99.90
39983;DHT22;25670;44.782;10.356;2023-04-03T18:58:49;10.00;99.90
39983;DHT22;25670;44.782;10.356;2023-04-03T19:01:15;10.00;99.90
39983;DHT22;25670;44.782;10.356;2023-04-03T19:03:42;10.30;99.90
39983;DHT22;25670;44.782;10.356;2023-04-03T19:06:08;9.70;99.90
39983;DHT22;25670;44.782;10.356;2023-04-03T19:08:35;9.80;99.90
39983;DHT22;25670;44.782;10.356;2023-04-03T19:11:01;9.80;99.90
39983;DHT22;25670;44.782;10.356;2023-04-03T19:13:28;9.80;99.90
39983;DHT22;25670;44.782;10.356;2023-04-03T19:15:54;9.90;99.90
39983;DHT22;25670;44.782;10.356;2023-04-03T19:18:25;9.80;99.90
39983;DHT22;25670;44.782;10.356;2023-04-03T19:20:54;9.70;99.90
39983;DHT22;25670;44.782;10.356;2023-04-03T19:23:21;9.80;99.90
39983;DHT22;25670;44.782;10.356;2023-04-03T19:25:59;9.80;99.90
39983;DHT22;25670;44.782;10.356;2023-04-03T19:28:26;9.70;99.90
39983;DHT22;25670;44.782;10.356;2023-04-03T19:30:52;9.80;99.90
39983;DHT22;25670;44.782;10.356;2023-04-03T19:33:19;9.50;99.90
39983;DHT22;25670;44.782;10.356;2023-04-03T19:35:46;9.50;99.90
39983;DHT22;25670;44.782;10.356;2023-04-03T19:38:12;9.50;99.90
39983;DHT22;25670;44.782;10.356;2023-04-03T19:43:13;9.30;99.90
39983;DHT22;25670;44.782;10.356;2023-04-03T19:45:39;9.20;99.90
39983;DHT22;25670;44.782;10.356;2023-04-03T19:48:06;9.20;99.90
39983;DHT22;25670;44.782;10.356;2023-04-03T19:50:33;9.10;99.90
39983;DHT22;25670;44.782;10.356;2023-04-03T19:53:00;7.40;99.90
39983;DHT22;25670;44.782;10.356;2023-04-03T19:55:27;8.70;99.90
39983;DHT22;25670;44.782;10.356;2023-04-03T19:57:57;8.90;99.90
39983;DHT22;25670;44.782;10.356;2023-04-03T20:00:24;9.00;99.90
39983;DHT22;25670;44.782;10.356;2023-04-03T20:02:51;8.90;99.90
39983;DHT22;25670;44.782;10.356;2023-04-03T20:05:17;8.80;99.90
39983;DHT22;25670;44.782;10.356;2023-04-03T20:07:43;9.20;99.90
39983;DHT22;25670;44.782;10.356;2023-04-03T20:10:10;8.80;99.90
39983;DHT22;25670;44.782;10.356;2023-04-03T20:15:05;8.70;99.90
39983;DHT22;25670;44.782;10.356;2023-04-03T20:17:33;8.80;99.90
39983;DHT22;25670;44.782;10.356;2023-04-03T20:20:01;8.80;99.90
39983;DHT22;25670;44.782;10.356;2023-04-03T20:24:55;8.80;99.90
39983;DHT22;25670;44.782;10.356;2023-04-03T20:32:15;8.60;99.90
39983;DHT22;25670;44.782;10.356;2023-04-03T20:34:42;8.50;99.90
39983;DHT22;25670;44.782;10.356;2023-04-03T20:37:09;8.60;99.90
39983;DHT22;25670;44.782;10.356;2023-04-03T20:39:36;8.50;99.90
39983;DHT22;25670;44.782;10.356;2023-04-03T20:42:03;8.50;99.90
39983;DHT22;25670;44.782;10.356;2023-04-03T20:44:29;8.30;99.90
39983;DHT22;25670;44.782;10.356;2023-04-03T20:46:56;8.30;99.90
39983;DHT22;25670;44.782;10.356;2023-04-03T20:49:23;9.40;99.90
39983;DHT22;25670;44.782;10.356;2023-04-03T20:51:51;8.20;99.90
39983;DHT22;25670;44.782;10.356;2023-04-03T20:54:17;8.30;99.90
39983;DHT22;25670;44.782;10.356;2023-04-03T20:59:12;8.10;99.90
39983;DHT22;25670;44.782;10.356;2023-04-03T21:01:38;8.30;99.90
39983;DHT22;25670;44.782;10.356;2023-04-03T21:04:15;8.30;99.90
39983;DHT22;25670;44.782;10.356;2023-04-03T21:21:25;8.70;99.90
39983;DHT22;25670;44.782;10.356;2023-04-03T21:23:53;8.20;99.90
39983;DHT22;25670;44.782;10.356;2023-04-03T21:26:20;8.30;99.90
39983;DHT22;25670;44.782;10.356;2023-04-03T21:28:49;8.30;99.90